Time;durP1;ratioP1;P1;durP2;ratioP2;P2;SDS_P1;SDS_P2;PMS_P1;PMS_P2;Temp;Humidity;BMP_temperature;BMP_pressure;BME280_temperature;BME280_humidity;BME280_pressure;Samples;Min_cycle;Max_cycle;Signal;HPM_P1;HPM_P2
2021/09/18 00:02:25;;;;;;;52.35;28.88;;;;;;;11.92;100.00;101609.47;5200034;28;20550;-71
2021/09/18 00:04:56;;;;;;;44.45;25.48;;;;;;;11.91;100.00;101613.19;5199207;28;20021;-71
2021/09/18 00:07:26;;;;;;;37.53;22.58;;;;;;;11.88;100.00;101614.31;5200502;28;20080;-71
2021/09/18 00:09:56;;;;;;;38.72;22.08;;;;;;;11.85;100.00;101611.97;5199404;28;20034;-71
2021/09/18 00:12:27;;;;;;;47.38;25.40;;;;;;;11.81;100.00;101607.03;5199846;28;20025;-72
2021/09/18 00:14:58;;;;;;;67.93;24.40;;;;;;;11.75;100.00;101611.19;5199706;28;20021;-70
2021/09/18 00:17:29;;;;;;;37.42;21.52;;;;;;;11.69;100.00;101609.09;5199732;28;20032;-71
2021/09/18 00:20:01;;;;;;;25.63;15.55;;;;;;;11.63;100.00;101610.56;5199501;28;20048;-71
2021/09/18 00:22:31;;;;;;;35.15;19.10;;;;;;;11.58;100.00;101602.09;5199327;28;20482;-72
2021/09/18 00:25:02;;;;;;;32.40;18.38;;;;;;;11.55;100.00;101612.34;5198760;28;20031;-72
2021/09/18 00:27:33;;;;;;;76.93;17.90;;;;;;;11.53;100.00;101609.78;5199614;28;20079;-71
2021/09/18 00:30:04;;;;;;;185.75;16.45;;;;;;;11.49;100.00;101607.56;5199359;28;20025;-71
2021/09/18 00:32:35;;;;;;;23.42;14.50;;;;;;;11.44;100.00;101605.31;5200098;28;20029;-71
2021/09/18 00:35:06;;;;;;;27.55;15.13;;;;;;;11.42;100.00;101601.97;5199271;28;20052;-71
2021/09/18 00:37:37;;;;;;;29.13;18.08;;;;;;;11.42;100.00;101604.66;5199401;28;20025;-71
2021/09/18 00:40:08;;;;;;;33.55;20.48;;;;;;;11.42;100.00;101607.34;5199068;28;20410;-71
2021/09/18 00:42:39;;;;;;;36.80;20.20;;;;;;;11.40;100.00;101604.81;5199374;28;20091;-70
2021/09/18 00:45:10;;;;;;;32.83;19.58;;;;;;;11.40;100.00;101606.66;5198850;28;20021;-71
2021/09/18 00:47:40;;;;;;;32.45;19.08;;;;;;;11.39;100.00;101608.47;5199084;28;20033;-71
2021/09/18 00:50:11;;;;;;;31.63;18.85;;;;;;;11.37;100.00;101610.47;5198710;28;20048;-71
2021/09/18 00:52:41;;;;;;;36.92;20.13;;;;;;;11.35;100.00;101608.97;5199616;28;20136;-71
2021/09/18 00:55:13;;;;;;;41.60;22.95;;;;;;;11.34;100.00;101609.94;5198816;28;20033;-71
2021/09/18 00:57:44;;;;;;;40.58;23.52;;;;;;;11.35;100.00;101611.66;5199794;28;20148;-71
2021/09/18 01:00:15;;;;;;;28.95;17.95;;;;;;;11.34;100.00;101602.72;5198330;28;20021;-71
2021/09/18 01:02:45;;;;;;;33.60;19.75;;;;;;;11.32;100.00;101603.88;5199739;28;20025;-71
2021/09/18 01:05:16;;;;;;;31.15;19.27;;;;;;;11.31;100.00;101607.56;5196663;28;20086;-72
2021/09/18 01:07:47;;;;;;;33.92;18.65;;;;;;;11.28;100.00;101608.69;5193575;28;20098;-71
2021/09/18 01:10:18;;;;;;;37.80;21.58;;;;;;;11.25;100.00;101605.50;5199498;28;20401;-72
2021/09/18 01:13:05;;;;;;;39.25;22.13;;;;;;;11.22;100.00;101603.94;5199570;28;20055;-71
2021/09/18 01:15:37;;;;;;;42.75;22.70;;;;;;;11.20;100.00;101605.94;5199071;28;20379;-73
2021/09/18 01:18:09;;;;;;;44.75;23.08;;;;;;;11.17;100.00;101597.34;5199154;28;20021;-73
2021/09/18 01:20:42;;;;;;;40.78;21.67;;;;;;;11.15;100.00;101605.56;5199053;28;20029;-74
2021/09/18 01:23:18;;;;;;;44.95;23.77;;;;;;;11.13;100.00;101603.00;5198912;28;20033;-74
2021/09/18 01:25:49;;;;;;;33.28;19.52;;;;;;;11.14;100.00;101602.03;5198515;28;20017;-74
2021/09/18 01:28:22;;;;;;;28.65;17.95;;;;;;;11.14;100.00;101601.16;5198516;28;20319;-74
2021/09/18 01:30:53;;;;;;;26.85;16.67;;;;;;;11.12;100.00;101606.69;5198448;28;20444;-73
2021/09/18 01:33:24;;;;;;;27.80;17.27;;;;;;;11.10;100.00;101602.50;5199751;28;20108;-74
2021/09/18 01:35:54;;;;;;;34.13;19.05;;;;;;;11.06;100.00;101599.25;5198493;28;20029;-73
2021/09/18 01:38:25;;;;;;;36.10;19.73;;;;;;;11.06;100.00;101601.94;5199072;28;20029;-73
2021/09/18 01:40:56;;;;;;;44.47;21.65;;;;;;;11.04;100.00;101603.91;5198633;28;20036;-73
2021/09/18 01:43:30;;;;;;;39.72;22.23;;;;;;;11.02;100.00;101605.06;5199171;28;20434;-73
2021/09/18 01:46:01;;;;;;;51.47;25.90;;;;;;;11.00;100.00;101604.38;5198613;28;20100;-72
2021/09/18 01:48:31;;;;;;;43.45;22.80;;;;;;;10.94;100.00;101603.13;5198427;28;20075;-72
2021/09/18 01:51:04;;;;;;;193.80;25.52;;;;;;;10.91;100.00;101599.91;5181256;28;20047;-73
2021/09/18 01:53:35;;;;;;;35.63;21.10;;;;;;;10.84;100.00;101596.97;5198783;28;20434;-74
2021/09/18 01:56:06;;;;;;;53.47;15.82;;;;;;;10.82;100.00;101601.66;5198845;28;20021;-73
2021/09/18 01:58:36;;;;;;;21.73;14.35;;;;;;;10.79;100.00;101600.13;5198871;28;20117;-73
2021/09/18 02:01:07;;;;;;;38.88;13.80;;;;;;;10.76;100.00;101596.88;5200206;28;20021;-72
2021/09/18 02:03:37;;;;;;;21.52;12.10;;;;;;;10.74;100.00;101597.00;5203259;28;20025;-72
2021/09/18 02:06:08;;;;;;;23.95;14.50;;;;;;;10.70;100.00;101595.66;5202428;28;20036;-73
2021/09/18 02:08:39;;;;;;;24.83;14.80;;;;;;;10.69;100.00;101587.72;5202450;28;20049;-73
2021/09/18 02:11:09;;;;;;;25.13;14.55;;;;;;;10.67;100.00;101595.09;5201948;28;20034;-73
2021/09/18 02:13:40;;;;;;;26.30;16.75;;;;;;;10.65;100.00;101589.88;5202641;28;20018;-73
2021/09/18 02:16:11;;;;;;;67.47;19.27;;;;;;;10.65;100.00;101594.41;5202592;28;20536;-72
2021/09/18 02:18:41;;;;;;;103.63;22.38;;;;;;;10.61;100.00;101589.31;5202501;28;20108;-73
2021/09/18 02:21:12;;;;;;;33.28;18.08;;;;;;;10.60;100.00;101590.31;5202369;28;20082;-73
2021/09/18 02:23:42;;;;;;;32.42;18.88;;;;;;;10.58;100.00;101584.25;5202236;28;20113;-72
2021/09/18 02:26:13;;;;;;;34.70;18.92;;;;;;;10.56;100.00;101583.56;5201767;28;20022;-73
2021/09/18 02:28:43;;;;;;;50.40;17.65;;;;;;;10.56;100.00;101580.88;5201722;28;20028;-70
2021/09/18 02:31:14;;;;;;;104.68;17.52;;;;;;;10.55;100.00;101583.72;5201874;28;20490;-71
2021/09/18 02:33:45;;;;;;;24.38;13.70;;;;;;;10.50;100.00;101578.78;5202776;28;20059;-71
2021/09/18 02:36:15;;;;;;;24.48;14.82;;;;;;;10.50;100.00;101569.91;5201000;28;20026;-71
2021/09/18 02:38:46;;;;;;;46.15;17.65;;;;;;;10.48;100.00;101572.72;5201016;28;20029;-70
2021/09/18 02:41:16;;;;;;;45.10;19.08;;;;;;;10.47;100.00;101570.19;5201252;28;20060;-71
2021/09/18 02:43:47;;;;;;;39.03;20.67;;;;;;;10.44;100.00;101575.84;5202163;28;20467;-71
2021/09/18 02:46:17;;;;;;;41.80;21.23;;;;;;;10.42;100.00;101576.00;5201751;28;20028;-71
2021/09/18 02:48:47;;;;;;;34.20;18.40;;;;;;;10.40;100.00;101572.63;5201674;28;20083;-72
2021/09/18 02:51:18;;;;;;;110.63;15.85;;;;;;;10.35;100.00;101565.03;5201089;28;20479;-71
2021/09/18 02:53:48;;;;;;;368.85;27.75;;;;;;;10.29;100.00;101570.09;5200580;28;20407;-70
2021/09/18 02:56:19;;;;;;;74.40;13.07;;;;;;;10.23;100.00;101571.50;5201605;28;20056;-71
2021/09/18 02:58:49;;;;;;;38.65;19.42;;;;;;;10.18;100.00;101564.91;5188434;28;20022;-70
2021/09/18 03:01:20;;;;;;;36.85;19.10;;;;;;;10.18;100.00;101563.06;5201134;28;20036;-71
2021/09/18 03:03:51;;;;;;;31.58;16.00;;;;;;;10.19;100.00;101564.78;5202201;28;20491;-70
2021/09/18 03:06:21;;;;;;;32.08;18.50;;;;;;;10.22;100.00;101566.28;5201323;28;20557;-70
2021/09/18 03:08:52;;;;;;;36.70;20.60;;;;;;;10.22;100.00;101566.28;5201609;28;20026;-70
2021/09/18 03:11:23;;;;;;;31.60;17.83;;;;;;;10.22;100.00;101568.97;5200762;28;20059;-71
2021/09/18 03:13:53;;;;;;;32.20;16.30;;;;;;;10.20;100.00;101565.59;5200434;28;20025;-71
2021/09/18 03:16:24;;;;;;;38.15;22.98;;;;;;;10.23;100.00;101570.66;5201326;28;20048;-72
2021/09/18 03:18:54;;;;;;;36.95;20.73;;;;;;;10.23;100.00;101563.47;5201352;28;20026;-71
2021/09/18 03:21:25;;;;;;;37.75;22.33;;;;;;;10.22;100.00;101559.09;5201217;28;20031;-72
2021/09/18 03:23:55;;;;;;;42.83;22.85;;;;;;;10.21;100.00;101556.56;5201545;28;20045;-71
2021/09/18 03:26:26;;;;;;;35.97;20.05;;;;;;;10.20;100.00;101558.41;5201271;28;20030;-72
2021/09/18 03:28:57;;;;;;;34.42;19.05;;;;;;;10.18;100.00;101552.31;5201437;28;20132;-72
2021/09/18 03:31:27;;;;;;;45.47;22.85;;;;;;;10.16;100.00;101554.31;5201071;28;20025;-72
2021/09/18 03:33:57;;;;;;;45.03;23.05;;;;;;;10.15;100.00;101555.31;5201107;28;20053;-72
2021/09/18 03:36:28;;;;;;;49.50;24.05;;;;;;;10.15;100.00;101558.00;5198334;28;20486;-72
2021/09/18 03:38:59;;;;;;;46.67;24.08;;;;;;;10.16;100.00;101559.69;5183219;28;20028;-72
2021/09/18 03:41:29;;;;;;;41.10;22.38;;;;;;;10.16;100.00;101556.16;5200609;28;20431;-70
2021/09/18 03:44:00;;;;;;;38.03;21.08;;;;;;;10.15;100.00;101554.47;5201009;28;20030;-72
2021/09/18 03:46:30;;;;;;;39.03;19.80;;;;;;;10.12;100.00;101552.91;5200849;28;20910;-72
2021/09/18 03:49:01;;;;;;;34.58;19.40;;;;;;;10.08;100.00;101555.03;5200535;28;20021;-72
2021/09/18 03:51:31;;;;;;;43.33;21.65;;;;;;;10.06;100.00;101561.56;5199102;28;20737;-71
2021/09/18 03:54:02;;;;;;;45.58;22.35;;;;;;;10.04;100.00;101561.72;5200887;28;20080;-72
2021/09/18 03:56:32;;;;;;;50.35;24.08;;;;;;;10.03;100.00;101551.94;5199992;28;20029;-72
2021/09/18 03:59:03;;;;;;;51.80;25.40;;;;;;;10.02;100.00;101554.78;5200445;28;20029;-72
2021/09/18 04:01:33;;;;;;;40.97;20.50;;;;;;;10.02;100.00;101554.78;5200100;28;20167;-72
2021/09/18 04:04:04;;;;;;;50.65;24.60;;;;;;;10.02;100.00;101557.47;5200573;28;20030;-72
2021/09/18 04:06:34;;;;;;;43.15;21.58;;;;;;;10.02;100.00;101560.16;5200439;28;20128;-72
2021/09/18 04:09:06;;;;;;;52.22;25.25;;;;;;;10.01;100.00;101563.81;5200385;28;20060;-71
2021/09/18 04:11:36;;;;;;;51.45;25.83;;;;;;;9.99;100.00;101576.50;5200535;28;20462;-70
2021/09/18 04:14:07;;;;;;;51.30;25.70;;;;;;;9.97;100.00;101568.63;5199870;28;20025;-70
2021/09/18 04:16:37;;;;;;;47.92;23.67;;;;;;;9.96;100.00;101576.81;5200076;28;20025;-72
2021/09/18 04:19:08;;;;;;;43.97;21.55;;;;;;;9.94;100.00;101582.34;5197835;28;20221;-71
2021/09/18 04:21:39;;;;;;;43.45;21.00;;;;;;;9.93;100.00;101580.63;5200017;28;20087;-70
2021/09/18 04:24:09;;;;;;;43.97;20.55;;;;;;;9.91;100.00;101579.94;5199298;28;20092;-71
2021/09/18 04:26:40;;;;;;;36.92;19.45;;;;;;;9.88;100.00;101582.03;5199723;28;20033;-70
2021/09/18 04:29:10;;;;;;;39.85;20.40;;;;;;;9.85;100.00;101573.31;5199740;28;20112;-72
2021/09/18 04:31:41;;;;;;;32.75;19.48;;;;;;;9.84;100.00;101584.19;5198787;28;20029;-72
2021/09/18 04:34:12;;;;;;;34.20;19.67;;;;;;;9.83;100.00;101580.63;5199847;28;20079;-71
2021/09/18 04:36:42;;;;;;;40.00;21.30;;;;;;;9.83;100.00;101579.78;5200369;28;20426;-70
2021/09/18 04:39:13;;;;;;;39.10;21.02;;;;;;;9.82;100.00;101580.78;5199276;28;20086;-71
2021/09/18 04:41:44;;;;;;;45.47;22.85;;;;;;;9.82;100.00;101583.47;5198771;28;20064;-73
2021/09/18 04:44:14;;;;;;;47.20;23.83;;;;;;;9.81;100.00;101582.63;5200001;28;20100;-71
2021/09/18 04:46:45;;;;;;;37.30;19.02;;;;;;;9.80;100.00;101580.94;5199399;28;20541;-73
2021/09/18 04:49:15;;;;;;;42.85;22.42;;;;;;;9.79;100.00;101586.44;5214856;28;20034;-74
2021/09/18 04:51:46;;;;;;;51.90;24.30;;;;;;;9.78;100.00;101587.41;5199554;28;20116;-74
2021/09/18 04:54:16;;;;;;;41.90;22.35;;;;;;;9.76;100.00;101584.88;5199539;28;20048;-73
2021/09/18 04:56:47;;;;;;;41.17;21.38;;;;;;;9.75;100.00;101593.06;5199762;28;20021;-73
2021/09/18 04:59:17;;;;;;;30.35;17.85;;;;;;;9.74;100.00;101596.72;5199046;28;20103;-73
2021/09/18 05:01:48;;;;;;;35.03;18.23;;;;;;;9.71;100.00;101597.03;5199238;28;20391;-73
2021/09/18 05:04:18;;;;;;;35.33;18.80;;;;;;;9.69;100.00;101605.22;5197859;28;20029;-73
2021/09/18 05:06:49;;;;;;;32.92;18.23;;;;;;;9.68;100.00;101599.97;5199431;28;20032;-73
2021/09/18 05:09:19;;;;;;;32.22;18.25;;;;;;;9.67;100.00;101601.81;5198820;28;20049;-73
2021/09/18 05:11:49;;;;;;;43.15;20.42;;;;;;;9.67;100.00;101606.31;5199442;28;20466;-72
2021/09/18 05:14:20;;;;;;;46.70;20.10;;;;;;;9.64;100.00;101610.16;5198913;28;20078;-72
2021/09/18 05:16:51;;;;;;;30.67;15.95;;;;;;;9.63;100.00;101602.22;5199501;28;20052;-72
2021/09/18 05:19:22;;;;;;;32.63;18.52;;;;;;;9.62;100.00;101603.22;5194246;28;20021;-72
2021/09/18 05:21:52;;;;;;;32.38;18.52;;;;;;;9.62;100.00;101600.53;5180670;28;20437;-72
2021/09/18 05:24:27;;;;;;;36.78;19.23;;;;;;;9.63;100.00;101607.59;5197920;28;20487;-72
2021/09/18 05:26:57;;;;;;;27.98;17.05;;;;;;;9.65;100.00;101611.00;5197110;28;20104;-72
2021/09/18 05:29:28;;;;;;;37.10;21.58;;;;;;;9.67;100.00;101612.53;5197048;28;20120;-72
2021/09/18 05:31:58;;;;;;;34.83;19.05;;;;;;;9.71;100.00;101607.75;5198121;28;20033;-72
2021/09/18 05:34:29;;;;;;;93.05;24.42;;;;;;;9.73;100.00;101606.59;5197669;28;20097;-72
2021/09/18 05:36:59;;;;;;;54.88;25.70;;;;;;;9.76;100.00;101614.34;5201370;28;20022;-72
2021/09/18 05:39:30;;;;;;;56.78;28.02;;;;;;;9.81;100.00;101613.94;5201126;28;20479;-72
2021/09/18 05:42:01;;;;;;;50.42;23.30;;;;;;;9.86;100.00;101609.84;5202188;28;20087;-72
2021/09/18 05:44:31;;;;;;;40.53;22.25;;;;;;;9.89;100.00;101614.09;5202064;28;20071;-72
2021/09/18 05:47:02;;;;;;;41.83;21.65;;;;;;;9.94;100.00;101609.13;5202428;28;20040;-72
2021/09/18 05:49:32;;;;;;;47.72;23.00;;;;;;;10.01;100.00;101615.59;5200775;28;20053;-72
2021/09/18 05:52:03;;;;;;;49.55;25.33;;;;;;;10.06;100.00;101618.69;5202453;28;20036;-73
2021/09/18 05:54:34;;;;;;;54.45;27.15;;;;;;;10.13;100.00;101614.44;5183968;28;20029;-72
2021/09/18 05:57:04;;;;;;;51.13;23.00;;;;;;;10.22;100.00;101609.19;5202347;28;20076;-72
2021/09/18 05:59:35;;;;;;;60.17;28.25;;;;;;;10.31;100.00;101609.22;5200635;28;20026;-73
2021/09/18 06:02:06;;;;;;;50.30;25.40;;;;;;;10.41;100.00;101622.59;5184410;28;20460;-73
2021/09/18 06:04:36;;;;;;;48.88;24.77;;;;;;;10.51;100.00;101618.03;5200814;28;20055;-73
2021/09/18 06:07:06;;;;;;;45.90;25.83;;;;;;;10.65;100.00;101623.94;5183886;28;20478;-73
2021/09/18 06:09:37;;;;;;;47.53;24.58;;;;;;;10.84;100.00;101623.81;5200434;28;20422;-73
2021/09/18 06:12:08;;;;;;;41.67;23.20;;;;;;;11.14;100.00;101628.91;5200394;28;20500;-73
2021/09/18 06:14:38;;;;;;;46.65;21.42;;;;;;;11.48;100.00;101630.91;5201556;28;20025;-73
2021/09/18 06:17:09;;;;;;;46.85;21.88;;;;;;;11.79;100.00;101625.13;5201170;28;20071;-72
2021/09/18 06:19:39;;;;;;;33.70;19.88;;;;;;;12.05;100.00;101633.25;5200687;28;20028;-73
2021/09/18 06:22:12;;;;;;;34.63;19.50;;;;;;;12.28;100.00;101639.81;5201217;28;20025;-73
2021/09/18 06:24:44;;;;;;;35.55;21.75;;;;;;;12.57;100.00;101628.72;5187996;28;20045;-73
2021/09/18 06:27:14;;;;;;;43.47;22.33;;;;;;;12.91;100.00;101630.56;5201045;28;20052;-73
2021/09/18 06:29:45;;;;;;;37.58;22.40;;;;;;;13.24;100.00;101628.00;5200064;28;20048;-73
2021/09/18 06:32:15;;;;;;;42.78;24.10;;;;;;;13.52;100.00;101629.41;5201450;28;20044;-73
2021/09/18 06:34:46;;;;;;;37.25;22.08;;;;;;;13.70;100.00;101632.81;5199804;28;20501;-72
2021/09/18 06:37:17;;;;;;;37.60;20.85;;;;;;;13.97;100.00;101628.09;5201209;28;20036;-73
2021/09/18 06:39:47;;;;;;;39.22;22.42;;;;;;;14.33;100.00;101633.94;5200453;28;20352;-73
2021/09/18 06:42:18;;;;;;;42.17;24.42;;;;;;;14.65;100.00;101630.34;5201426;28;20029;-71
2021/09/18 06:44:48;;;;;;;47.80;26.80;;;;;;;14.97;100.00;101633.94;5200937;28;20029;-71
2021/09/18 06:47:18;;;;;;;40.65;24.45;;;;;;;15.33;100.00;101630.72;5200352;28;20048;-71
2021/09/18 06:49:49;;;;;;;41.83;24.77;;;;;;;15.65;100.00;101638.63;5199978;28;20026;-71
2021/09/18 06:52:19;;;;;;;46.38;26.65;;;;;;;15.91;100.00;101642.81;5200863;28;20057;-72
2021/09/18 06:54:50;;;;;;;46.72;26.20;;;;;;;16.04;100.00;101640.34;5182808;28;20071;-72
2021/09/18 06:57:20;;;;;;;51.30;27.10;;;;;;;16.17;100.00;101640.56;5197500;28;20013;-71
2021/09/18 06:59:51;;;;;;;43.97;25.98;;;;;;;16.08;100.00;101640.81;5200279;28;20365;-71
2021/09/18 07:02:21;;;;;;;49.05;27.58;;;;;;;15.86;100.00;101646.06;5200524;28;20083;-71
2021/09/18 07:04:52;;;;;;;46.40;28.33;;;;;;;15.68;100.00;101649.09;5199932;28;20029;-71
2021/09/18 07:07:28;;;;;;;53.65;29.55;;;;;;;15.48;100.00;101648.69;5200736;28;20025;-71
2021/09/18 07:09:59;;;;;;;48.40;29.73;;;;;;;15.34;100.00;101651.31;5182073;28;20030;-71
2021/09/18 07:12:29;;;;;;;51.05;29.67;;;;;;;15.31;100.00;101657.91;5200126;28;20043;-72
2021/09/18 07:15:00;;;;;;;56.72;31.58;;;;;;;15.20;100.00;101647.50;5182178;28;20029;-71
2021/09/18 07:17:30;;;;;;;56.28;32.58;;;;;;;15.11;100.00;101648.53;5199843;28;20120;-71
2021/09/18 07:20:02;;;;;;;57.50;31.08;;;;;;;15.02;100.00;101648.59;5199334;28;20022;-71
2021/09/18 07:22:32;;;;;;;57.72;31.27;;;;;;;14.98;100.00;101649.97;5198453;28;20033;-72
2021/09/18 07:25:03;;;;;;;61.63;33.60;;;;;;;15.02;100.00;101650.47;5199831;28;20029;-72
2021/09/18 07:27:35;;;;;;;63.00;34.28;;;;;;;15.08;100.00;101646.22;5199941;28;20150;-71
2021/09/18 07:30:07;;;;;;;67.25;35.22;;;;;;;15.17;100.00;101654.09;5199159;28;20022;-71
2021/09/18 07:32:37;;;;;;;63.05;32.58;;;;;;;15.27;100.00;101656.59;5200003;28;20106;-71
2021/09/18 07:35:08;;;;;;;61.65;33.17;;;;;;;15.31;100.00;101662.47;5199776;28;20029;-71
2021/09/18 07:37:39;;;;;;;67.07;35.65;;;;;;;15.31;100.00;101657.06;5182116;28;20406;-71
2021/09/18 07:40:12;;;;;;;62.80;34.75;;;;;;;15.36;100.00;101660.06;5198993;28;20025;-72
2021/09/18 07:42:43;;;;;;;62.55;33.38;;;;;;;15.43;100.00;101664.59;5199788;28;20106;-72
2021/09/18 07:45:13;;;;;;;61.92;34.70;;;;;;;15.55;100.00;101655.03;5199805;28;20026;-71
2021/09/18 07:47:43;;;;;;;62.47;35.22;;;;;;;15.83;100.00;101659.97;5199359;28;20041;-72
2021/09/18 07:50:14;;;;;;;54.08;33.15;;;;;;;16.11;100.00;101654.81;5198952;28;20017;-71
2021/09/18 07:52:46;;;;;;;57.80;31.63;;;;;;;16.32;100.00;101662.25;5199364;28;20041;-72
2021/09/18 07:55:16;;;;;;;57.13;34.50;;;;;;;16.63;100.00;101659.38;5197677;28;20651;-72
2021/09/18 07:57:47;;;;;;;49.15;27.85;;;;;;;17.16;100.00;101662.81;5199177;28;20034;-73
2021/09/18 08:00:17;;;;;;;54.80;32.30;;;;;;;17.37;100.00;101669.31;5198162;28;20020;-73
2021/09/18 08:02:48;;;;;;;54.70;31.20;;;;;;;17.42;100.00;101675.00;5199428;28;20124;-71
2021/09/18 08:05:19;;;;;;;49.78;29.52;;;;;;;17.47;100.00;101678.00;5199002;28;20056;-71
2021/09/18 08:07:50;;;;;;;52.50;30.45;;;;;;;17.39;100.00;101670.81;5199225;28;20040;-71
2021/09/18 08:10:21;;;;;;;59.28;31.88;;;;;;;17.32;100.00;101675.34;5197220;28;20013;-71
2021/09/18 08:12:51;;;;;;;53.00;32.03;;;;;;;17.33;100.00;101674.31;5199590;28;20637;-71
2021/09/18 08:15:23;;;;;;;57.40;32.90;;;;;;;17.26;100.00;101685.06;5181646;28;20026;-71
2021/09/18 08:17:53;;;;;;;55.40;32.53;;;;;;;17.29;100.00;101681.97;5198649;28;20617;-71
2021/09/18 08:20:24;;;;;;;56.30;31.92;;;;;;;17.41;100.00;101682.31;5198589;28;20021;-72
2021/09/18 08:22:55;;;;;;;52.72;31.77;;;;;;;17.40;100.00;101677.09;5199282;28;20053;-72
2021/09/18 08:25:26;;;;;;;57.65;32.95;;;;;;;17.52;100.00;101679.13;5198915;28;20437;-72
2021/09/18 08:27:57;;;;;;;50.75;31.27;;;;;;;17.83;100.00;101678.00;5198829;28;20549;-72
2021/09/18 08:30:27;;;;;;;49.00;28.75;;;;;;;18.14;100.00;101683.09;5198464;28;20044;-71
2021/09/18 08:32:58;;;;;;;51.88;31.50;;;;;;;18.27;100.00;101675.06;5199140;28;20017;-72
2021/09/18 08:35:28;;;;;;;50.13;31.88;;;;;;;18.52;100.00;101675.44;5197990;28;20433;-72
2021/09/18 08:37:59;;;;;;;49.25;28.73;;;;;;;18.77;100.00;101683.97;5198843;28;20507;-72
2021/09/18 08:40:34;;;;;;;50.33;27.98;;;;;;;19.06;100.00;101680.16;5199102;28;20057;-72
2021/09/18 08:43:07;;;;;;;45.70;28.42;;;;;;;19.23;100.00;101672.53;5198903;28;20453;-72
2021/09/18 08:45:37;;;;;;;42.13;26.17;;;;;;;19.40;100.00;101670.25;5199134;28;20109;-71
2021/09/18 08:48:08;;;;;;;45.38;27.55;;;;;;;19.56;100.00;101675.31;5198491;28;20108;-72
2021/09/18 08:50:38;;;;;;;44.95;27.45;;;;;;;19.78;100.00;101678.78;5198884;28;20021;-72
2021/09/18 08:53:09;;;;;;;40.42;24.77;;;;;;;19.84;100.00;101671.66;5198600;28;20025;-72
2021/09/18 08:55:40;;;;;;;45.00;27.40;;;;;;;20.06;100.00;101680.47;5198823;28;20079;-72
2021/09/18 08:58:10;;;;;;;45.00;28.17;;;;;;;20.57;100.00;101672.50;5197910;28;20032;-72
2021/09/18 09:00:43;;;;;;;38.70;26.08;;;;;;;21.31;100.00;101670.41;5180881;28;20478;-73
2021/09/18 09:03:15;;;;;;;43.08;26.38;;;;;;;21.72;100.00;101676.25;5198480;28;20662;-71
2021/09/18 09:05:45;;;;;;;36.30;24.90;;;;;;;21.84;100.00;101670.94;5198181;28;20029;-72
2021/09/18 09:08:21;;;;;;;45.13;26.23;;;;;;;21.90;100.00;101670.06;5180117;28;20036;-72
2021/09/18 09:47:34;;;;;;;31.10;19.73;;;;;;;23.37;100.00;101669.41;5256954;28;20166;-73
2021/09/18 09:50:05;;;;;;;30.40;17.50;;;;;;;23.50;100.00;101667.34;5257197;28;20263;-73
2021/09/18 09:52:37;;;;;;;30.60;16.88;;;;;;;23.60;100.00;101668.69;5240596;28;20436;-73
2021/09/18 09:55:13;;;;;;;29.33;18.30;;;;;;;23.73;100.00;101672.09;5257958;28;20103;-73
2021/09/18 09:57:46;;;;;;;25.08;16.75;;;;;;;23.83;100.00;101667.94;5256480;28;20542;-73
2021/09/18 10:00:16;;;;;;;28.33;16.63;;;;;;;24.03;100.00;101663.81;5221131;28;20495;-73
2021/09/18 10:02:47;;;;;;;26.30;17.85;;;;;;;24.13;100.00;101668.72;5194195;28;20032;-74
2021/09/18 10:05:17;;;;;;;30.08;17.50;;;;;;;24.13;100.00;101659.66;5193381;28;20044;-74
2021/09/18 10:07:48;;;;;;;31.08;18.70;;;;;;;24.10;100.00;101660.13;5206716;28;20128;-74
2021/09/18 10:10:19;;;;;;;32.58;18.00;;;;;;;24.06;100.00;101654.28;5201713;28;20028;-74
2021/09/18 10:12:50;;;;;;;24.63;16.65;;;;;;;23.85;100.00;101661.19;5213579;28;20441;-74
2021/09/18 10:15:24;;;;;;;31.25;18.00;;;;;;;23.63;100.00;101654.50;5202786;28;20065;-74
2021/09/18 10:17:57;;;;;;;26.58;16.98;;;;;;;23.78;100.00;101663.16;5193073;28;20037;-74
2021/09/18 10:23:14;;;;;;;21.85;15.38;;;;;;;24.21;100.00;101656.56;5191821;28;20033;-74
2021/09/18 10:25:51;;;;;;;22.35;14.27;;;;;;;24.06;100.00;101657.03;5205245;28;20024;-74
2021/09/18 10:28:24;;;;;;;20.08;12.15;;;;;;;23.89;100.00;101656.88;5201507;28;20029;-74
2021/09/18 10:30:58;;;;;;;20.30;11.77;;;;;;;23.89;100.00;101656.03;5208039;28;20513;-71
2021/09/18 10:33:39;;;;;;;20.33;13.82;;;;;;;23.94;100.00;101653.44;5205041;28;20524;-71
2021/09/18 10:36:13;;;;;;;21.50;12.02;;;;;;;23.85;100.00;101654.88;5205508;28;20049;-74
2021/09/18 10:39:02;;;;;;;19.38;13.27;;;;;;;23.88;100.00;101648.91;5206947;28;20075;-74
2021/09/18 10:41:42;;;;;;;20.77;11.45;;;;;;;23.87;100.00;101637.09;5210143;28;20039;-74
2021/09/18 10:44:15;;;;;;;17.38;11.60;;;;;;;23.73;100.00;101641.94;5192080;28;20029;-73
2021/09/18 10:46:48;;;;;;;20.23;12.60;;;;;;;23.60;100.00;101644.88;5206171;28;20338;-73
2021/09/18 10:49:32;;;;;;;19.92;13.43;;;;;;;23.61;100.00;101638.31;5204130;28;20053;-73
2021/09/18 10:52:17;;;;;;;22.50;11.75;;;;;;;23.71;100.00;101633.16;5196339;28;20025;-73
2021/09/18 10:55:02;;;;;;;16.83;10.68;;;;;;;23.99;100.00;101637.94;5197805;28;20025;-73
2021/09/18 10:57:37;;;;;;;18.10;11.45;;;;;;;24.13;100.00;101626.75;5195149;28;20030;-74
2021/09/18 11:00:12;;;;;;;14.55;9.85;;;;;;;24.26;100.00;101626.53;5193793;28;20042;-74
2021/09/18 11:02:45;;;;;;;18.80;10.80;;;;;;;24.23;100.00;101625.09;5178538;28;20487;-74
2021/09/18 11:05:22;;;;;;;13.10;9.27;;;;;;;24.28;100.00;101627.13;5177191;28;20101;-74
2021/09/18 11:07:55;;;;;;;17.40;9.85;;;;;;;24.51;100.00;101618.09;5191136;28;20068;-74
2021/09/18 11:10:31;;;;;;;18.48;11.00;;;;;;;24.34;100.00;101617.94;5187046;28;20026;-73
2021/09/18 11:13:07;;;;;;;13.88;10.18;;;;;;;24.46;100.00;101620.72;5193885;28;20096;-74
2021/09/18 11:15:40;;;;;;;16.63;7.60;;;;;;;24.02;100.00;101623.78;5177693;28;20560;-73
2021/09/18 11:18:33;;;;;;;11.27;6.95;;;;;;;23.95;93.16;101619.50;5177128;28;20112;-74
2021/09/18 11:21:12;;;;;;;10.07;7.32;;;;;;;23.61;99.72;101619.16;5182851;28;20434;-74
2021/09/18 11:23:48;;;;;;;14.65;7.35;;;;;;;23.58;100.00;101621.50;5190368;28;20677;-74
2021/09/18 11:26:35;;;;;;;10.23;6.65;;;;;;;23.72;100.00;101625.75;5198039;28;20479;-73
2021/09/18 11:29:10;;;;;;;9.35;6.60;;;;;;;23.70;100.00;101617.78;5195157;28;20443;-74
2021/09/18 11:32:10;;;;;;;16.95;8.38;;;;;;;23.87;100.00;101615.19;5187345;28;20034;-74
2021/09/18 11:34:47;;;;;;;13.45;7.95;;;;;;;23.87;100.00;101614.34;5186704;28;20052;-74
2021/09/18 11:37:26;;;;;;;11.65;7.63;;;;;;;24.05;100.00;101617.00;5184947;28;20040;-74
2021/09/18 11:40:02;;;;;;;14.32;7.90;;;;;;;24.32;100.00;101614.59;5185352;28;20391;-74
2021/09/18 11:42:39;;;;;;;11.18;7.22;;;;;;;24.48;100.00;101610.34;5187939;28;20030;-74
2021/09/18 11:45:16;;;;;;;9.90;6.50;;;;;;;24.52;100.00;101606.88;5191291;28;20025;-74
2021/09/18 11:47:50;;;;;;;12.75;6.05;;;;;;;24.49;99.39;101610.09;5186897;28;20391;-74
2021/09/18 11:50:20;;;;;;;11.43;6.30;;;;;;;24.25;81.43;101602.94;5185000;28;20063;-74
2021/09/18 11:52:53;;;;;;;10.13;6.60;;;;;;;24.28;88.35;101610.66;5197675;28;20510;-74
2021/09/18 11:55:36;;;;;;;12.15;7.53;;;;;;;24.22;99.15;101592.44;5179161;28;20399;-74
2021/09/18 11:58:09;;;;;;;10.65;7.65;;;;;;;24.33;100.00;101594.34;5175528;28;20411;-74
2021/09/18 12:00:46;;;;;;;10.98;7.03;;;;;;;24.44;100.00;101599.00;5175871;28;20025;-74
2021/09/18 12:03:28;;;;;;;10.35;6.47;;;;;;;24.54;100.00;101591.00;5177140;28;20111;-74
2021/09/18 12:06:03;;;;;;;14.65;6.70;;;;;;;24.54;98.25;101588.25;5177362;28;20044;-74